createdAt,value
2023-02-17T00:01:53.992Z,2.20
2023-02-17T00:04:23.004Z,2.80
2023-02-17T00:06:51.948Z,2.30
2023-02-17T00:09:20.922Z,2.75
2023-02-17T00:11:50.066Z,2.40
2023-02-17T00:14:24.877Z,2.40
2023-02-17T00:16:53.846Z,2.97
2023-02-17T00:19:25.633Z,2.50
2023-02-17T00:22:02.387Z,3.53
2023-02-17T00:27:07.832Z,2.95
2023-02-17T00:29:36.877Z,2.20
2023-02-17T00:32:06.171Z,2.03
2023-02-17T00:34:35.247Z,1.88
2023-02-17T00:37:04.226Z,1.80
2023-02-17T00:39:34.626Z,2.15
2023-02-17T00:42:06.523Z,2.20
2023-02-17T00:44:35.594Z,2.00
2023-02-17T00:47:06.615Z,1.80
2023-02-17T00:49:38.189Z,1.67
2023-02-17T00:52:07.438Z,1.88
2023-02-17T00:54:36.447Z,1.70
2023-02-17T00:57:05.565Z,2.05
2023-02-17T00:59:34.672Z,3.10
2023-02-17T01:02:03.663Z,3.83
2023-02-17T01:04:35.361Z,4.13
2023-02-17T01:07:04.484Z,3.55
2023-02-17T01:09:33.656Z,2.28
2023-02-17T01:12:02.808Z,2.25
2023-02-17T01:14:33.526Z,1.70
2023-02-17T01:17:02.447Z,2.20
2023-02-17T01:19:31.440Z,1.92
2023-02-17T01:22:00.639Z,1.90
2023-02-17T01:24:29.630Z,1.88
2023-02-17T01:26:58.590Z,1.95
2023-02-17T01:29:29.464Z,1.50
2023-02-17T01:31:58.472Z,1.80
2023-02-17T01:34:29.219Z,1.70
2023-02-17T01:36:58.299Z,3.88
2023-02-17T01:39:31.889Z,8.02
2023-02-17T01:42:00.945Z,8.90
2023-02-17T01:44:33.727Z,8.95
2023-02-17T01:47:02.881Z,20.83
2023-02-17T01:49:40.544Z,8.45
2023-02-17T01:52:14.833Z,3.13
2023-02-17T01:54:53.782Z,1.92
2023-02-17T01:57:30.434Z,1.88
2023-02-17T02:00:00.809Z,3.42
2023-02-17T02:02:31.979Z,3.15
2023-02-17T02:05:02.250Z,3.78
2023-02-17T02:07:35.677Z,9.13
2023-02-17T02:10:05.560Z,15.95
2023-02-17T02:12:40.016Z,18.95
2023-02-17T02:15:16.823Z,4.55
2023-02-17T02:18:10.056Z,1.73
2023-02-17T02:21:21.661Z,1.30
2023-02-17T02:24:04.395Z,1.60
2023-02-17T02:27:14.272Z,1.40
2023-02-17T02:30:15.098Z,1.65
2023-02-17T02:33:02.066Z,1.40
2023-02-17T02:35:36.989Z,2.08
2023-02-17T02:38:18.333Z,2.30
2023-02-17T02:40:56.625Z,2.13
2023-02-17T02:43:27.710Z,1.98
2023-02-17T02:45:59.755Z,2.00
2023-02-17T02:48:31.495Z,2.00
2023-02-17T02:51:21.217Z,1.98
2023-02-17T02:53:54.181Z,4.93
2023-02-17T02:56:43.228Z,2.85
2023-02-17T02:59:32.506Z,2.08
2023-02-17T03:02:23.102Z,1.63
2023-02-17T03:05:13.248Z,2.05
2023-02-17T03:07:51.266Z,1.55
2023-02-17T03:10:21.924Z,1.60
2023-02-17T03:12:51.095Z,1.70
2023-02-17T03:15:27.588Z,1.85
2023-02-17T03:18:01.166Z,1.70
2023-02-17T03:20:35.682Z,1.80
2023-02-17T03:23:08.934Z,1.85
2023-02-17T03:25:37.941Z,2.20
2023-02-17T03:28:06.874Z,2.38
2023-02-17T03:30:39.025Z,3.10
2023-02-17T03:33:07.993Z,2.78
2023-02-17T03:35:36.929Z,4.38
2023-02-17T03:38:06.526Z,4.30
2023-02-17T03:40:35.792Z,4.00
2023-02-17T03:43:04.991Z,2.92
2023-02-17T03:45:36.605Z,2.58
2023-02-17T03:48:08.929Z,2.60
2023-02-17T03:50:41.011Z,2.90
2023-02-17T03:53:15.804Z,2.38
2023-02-17T03:55:45.103Z,2.38
2023-02-17T03:58:14.152Z,2.33
2023-02-17T04:00:43.145Z,2.53
2023-02-17T04:03:12.146Z,2.25
2023-02-17T04:05:41.112Z,1.65
2023-02-17T04:08:12.566Z,1.95
2023-02-17T04:10:41.890Z,2.13
2023-02-17T04:13:13.440Z,1.95
2023-02-17T04:15:45.658Z,1.83
2023-02-17T04:18:16.604Z,2.00
2023-02-17T04:20:52.944Z,3.30
2023-02-17T04:23:24.958Z,4.82
2023-02-17T04:25:54.221Z,14.35
2023-02-17T04:28:23.848Z,9.00
2023-02-17T04:30:55.892Z,8.20
2023-02-17T04:33:26.784Z,7.32
2023-02-17T04:36:00.511Z,5.75
2023-02-17T04:38:31.406Z,5.40
2023-02-17T04:41:01.389Z,4.00
2023-02-17T04:43:30.888Z,4.57
2023-02-17T04:46:00.163Z,6.18
2023-02-17T04:48:32.916Z,3.42
2023-02-17T04:51:02.038Z,3.22
2023-02-17T04:53:33.951Z,3.95
2023-02-17T04:56:06.028Z,4.72
2023-02-17T04:58:40.079Z,6.40
2023-02-17T05:01:09.122Z,4.70
2023-02-17T05:03:38.361Z,5.45
2023-02-17T05:06:07.881Z,6.43
2023-02-17T05:08:39.301Z,5.60
2023-02-17T05:11:08.295Z,5.90
2023-02-17T05:13:46.986Z,4.13
2023-02-17T05:16:16.096Z,4.75
2023-02-17T05:18:49.089Z,6.97
2023-02-17T05:21:18.036Z,8.80
2023-02-17T05:23:46.894Z,9.07
2023-02-17T05:26:15.914Z,8.60
2023-02-17T05:28:44.870Z,7.97
2023-02-17T05:31:14.506Z,6.20
2023-02-17T05:33:44.620Z,3.55
2023-02-17T05:36:14.569Z,4.78
2023-02-17T05:38:45.883Z,5.25
2023-02-17T05:41:18.268Z,4.45
2023-02-17T05:43:48.018Z,3.80
2023-02-17T05:46:22.268Z,4.30
2023-02-17T05:48:51.259Z,3.40
2023-02-17T05:51:23.024Z,3.60
2023-02-17T05:53:52.347Z,3.70
2023-02-17T05:56:24.017Z,3.60
2023-02-17T05:58:55.491Z,4.15
2023-02-17T06:01:24.682Z,3.50
2023-02-17T06:03:53.675Z,3.70
2023-02-17T06:06:26.949Z,3.50
2023-02-17T06:08:59.338Z,3.00
2023-02-17T06:11:30.587Z,2.50
2023-02-17T06:13:59.822Z,2.30
2023-02-17T06:16:29.121Z,2.83
2023-02-17T06:19:00.835Z,2.97
2023-02-17T06:21:32.877Z,4.28
2023-02-17T06:24:07.958Z,2.88
2023-02-17T06:26:36.978Z,2.80
2023-02-17T06:29:06.874Z,3.28
2023-02-17T06:31:36.400Z,3.40
2023-02-17T06:34:17.347Z,3.53
2023-02-17T06:36:46.593Z,3.15
2023-02-17T06:39:15.664Z,3.00
2023-02-17T06:41:47.757Z,5.20
2023-02-17T06:44:17.057Z,10.43
2023-02-17T06:46:47.805Z,19.05
2023-02-17T06:49:16.845Z,19.13
2023-02-17T06:51:45.819Z,17.92
2023-02-17T06:54:20.474Z,15.70
2023-02-17T06:56:50.712Z,15.82
2023-02-17T06:59:19.702Z,9.70
2023-02-17T07:01:50.692Z,8.63
2023-02-17T07:04:22.899Z,4.35
2023-02-17T07:06:51.941Z,3.45
2023-02-17T07:09:22.329Z,4.10
2023-02-17T07:11:54.152Z,4.22
2023-02-17T07:14:25.019Z,5.35
2023-02-17T07:17:08.322Z,4.93
2023-02-17T07:19:39.766Z,5.40
2023-02-17T07:22:11.449Z,3.95
2023-02-17T07:24:40.668Z,7.70
2023-02-17T07:27:10.980Z,13.18
2023-02-17T07:29:40.114Z,15.60
2023-02-17T07:32:12.582Z,3.78
2023-02-17T07:34:41.638Z,5.97
2023-02-17T07:37:10.679Z,17.40
2023-02-17T07:39:39.807Z,14.40
2023-02-17T07:42:08.798Z,7.93
2023-02-17T07:44:37.738Z,4.28
2023-02-17T07:47:06.836Z,7.38
2023-02-17T07:49:35.979Z,3.50
2023-02-17T07:52:10.589Z,2.97
2023-02-17T07:54:41.240Z,4.18
2023-02-17T07:57:10.253Z,2.72
2023-02-17T07:59:41.938Z,4.78
2023-02-17T08:02:13.298Z,4.20
2023-02-17T08:04:42.336Z,8.98
2023-02-17T08:07:11.445Z,6.75
2023-02-17T08:09:58.715Z,2.58
2023-02-17T08:12:49.083Z,2.00
2023-02-17T08:17:49.362Z,2.13
2023-02-17T08:20:20.308Z,2.90
2023-02-17T08:22:49.367Z,3.50
2023-02-17T08:25:19.651Z,6.78
2023-02-17T08:27:48.666Z,3.03
2023-02-17T08:30:18.511Z,6.10
2023-02-17T08:32:54.812Z,4.32
2023-02-17T08:35:33.372Z,7.05
2023-02-17T08:38:03.431Z,6.70
2023-02-17T08:40:35.735Z,5.15
2023-02-17T08:43:04.883Z,8.40
2023-02-17T08:45:37.394Z,3.70
2023-02-17T08:48:07.177Z,9.75
2023-02-17T08:50:42.466Z,5.20
2023-02-17T08:53:11.603Z,6.18
2023-02-17T08:55:48.818Z,11.32
2023-02-17T08:58:18.642Z,7.07
2023-02-17T09:00:47.935Z,5.88
2023-02-17T09:03:20.309Z,1.80
2023-02-17T09:05:50.556Z,1.92
2023-02-17T09:08:20.414Z,1.85
2023-02-17T09:10:49.612Z,2.17
2023-02-17T09:13:26.141Z,4.13
2023-02-17T09:15:56.250Z,3.88
2023-02-17T09:18:26.619Z,2.00
2023-02-17T09:21:08.966Z,2.17
2023-02-17T09:23:47.346Z,1.80
2023-02-17T09:26:21.916Z,1.52
2023-02-17T09:28:54.528Z,1.48
2023-02-17T09:31:28.484Z,2.08
2023-02-17T09:34:01.432Z,2.60
2023-02-17T09:36:36.154Z,2.00
2023-02-17T09:39:09.262Z,2.55
2023-02-17T09:41:43.177Z,3.85
2023-02-17T09:44:27.398Z,2.60
2023-02-17T09:47:02.210Z,2.20
2023-02-17T09:50:02.212Z,2.10
2023-02-17T09:52:37.992Z,1.42
2023-02-17T09:55:12.716Z,1.90
2023-02-17T09:58:03.138Z,1.73
2023-02-17T10:00:39.497Z,1.60
2023-02-17T10:03:19.902Z,3.08
2023-02-17T10:06:17.156Z,2.60
2023-02-17T10:09:12.933Z,2.03
2023-02-17T10:11:54.508Z,2.33
2023-02-17T10:14:29.515Z,3.03
2023-02-17T10:17:18.757Z,2.17
2023-02-17T10:20:10.276Z,2.20
2023-02-17T10:22:41.126Z,2.13
2023-02-17T10:25:27.419Z,1.60
2023-02-17T10:28:02.271Z,1.90
2023-02-17T10:30:56.175Z,1.70
2023-02-17T10:33:36.381Z,1.65
2023-02-17T10:36:13.833Z,2.40
2023-02-17T10:39:14.286Z,2.17
2023-02-17T10:41:46.772Z,2.25
2023-02-17T10:44:23.747Z,4.13
2023-02-17T10:46:55.239Z,2.10
2023-02-17T10:49:35.438Z,1.33
2023-02-17T10:52:18.866Z,2.78
2023-02-17T10:54:55.706Z,1.48
2023-02-17T10:57:27.117Z,2.20
2023-02-17T10:59:59.299Z,2.00
2023-02-17T11:02:41.055Z,2.85
2023-02-17T11:05:21.746Z,3.30
2023-02-17T11:08:11.598Z,2.70
2023-02-17T11:10:44.353Z,2.08
2023-02-17T11:13:37.392Z,1.73
2023-02-17T11:16:08.214Z,2.50
2023-02-17T11:18:46.094Z,2.92
2023-02-17T11:21:15.292Z,2.70
2023-02-17T11:23:56.382Z,2.78
2023-02-17T11:26:32.022Z,1.65
2023-02-17T11:29:19.013Z,1.95
2023-02-17T11:32:13.136Z,1.70
2023-02-17T11:34:44.686Z,1.80
2023-02-17T11:37:18.742Z,2.50
2023-02-17T11:39:56.454Z,2.58
2023-02-17T11:42:34.018Z,2.67
2023-02-17T11:45:19.599Z,2.08
2023-02-17T11:48:00.471Z,1.60
2023-02-17T11:50:52.454Z,1.55
2023-02-17T11:53:36.362Z,2.08
2023-02-17T11:56:33.472Z,1.55
2023-02-17T11:59:20.931Z,1.30
2023-02-17T12:01:50.009Z,1.30
2023-02-17T12:04:30.302Z,1.67
2023-02-17T12:07:39.836Z,1.50
2023-02-17T12:10:23.909Z,1.40
2023-02-17T12:13:04.481Z,1.40
2023-02-17T12:15:33.411Z,1.70
2023-02-17T12:18:20.289Z,1.73
2023-02-17T12:21:13.159Z,4.40
2023-02-17T12:23:53.914Z,9.70
2023-02-17T12:26:40.675Z,9.55
2023-02-17T12:29:48.563Z,8.05
2023-02-17T12:32:40.611Z,4.45
2023-02-17T12:35:24.587Z,1.90
2023-02-17T12:38:11.905Z,1.58
2023-02-17T12:40:46.327Z,1.75
2023-02-17T12:43:15.471Z,1.95
2023-02-17T12:45:47.955Z,2.35
2023-02-17T12:48:35.945Z,2.20
2023-02-17T12:51:22.956Z,1.65
2023-02-17T12:54:07.622Z,1.52
2023-02-17T12:56:51.700Z,1.55
2023-02-17T12:59:38.203Z,1.33
2023-02-17T13:02:19.379Z,2.20
2023-02-17T13:05:03.636Z,2.25
2023-02-17T13:07:45.022Z,1.77
2023-02-17T13:10:32.495Z,1.85
2023-02-17T13:13:15.213Z,1.90
2023-02-17T13:15:49.057Z,2.00
2023-02-17T13:18:34.127Z,2.10
2023-02-17T13:21:26.506Z,2.05
2023-02-17T13:24:34.698Z,2.03
2023-02-17T13:27:26.254Z,1.50
2023-02-17T13:30:22.942Z,1.10
2023-02-17T13:33:33.194Z,1.30
2023-02-17T13:36:29.953Z,1.23
2023-02-17T13:39:09.388Z,1.00
2023-02-17T13:42:00.265Z,1.23
2023-02-17T13:44:34.820Z,1.10
2023-02-17T13:47:23.990Z,1.10
2023-02-17T13:49:59.426Z,1.00
2023-02-17T13:52:42.650Z,1.10
2023-02-17T13:55:22.918Z,1.10
2023-02-17T13:57:59.300Z,1.10
2023-02-17T14:00:38.086Z,1.67
2023-02-17T14:03:37.892Z,0.90
2023-02-17T14:06:44.827Z,1.20
2023-02-17T14:09:50.347Z,1.10
2023-02-17T14:12:40.623Z,1.00
2023-02-17T14:15:30.700Z,1.10
2023-02-17T14:18:33.727Z,0.80
2023-02-17T14:21:30.021Z,0.90
2023-02-17T14:24:51.801Z,0.90
2023-02-17T14:27:58.669Z,1.05
2023-02-17T14:30:45.389Z,1.05
2023-02-17T14:33:34.849Z,1.25
2023-02-17T14:36:11.035Z,1.20
2023-02-17T14:39:09.602Z,0.88
2023-02-17T14:41:41.380Z,1.20
2023-02-17T14:44:11.072Z,1.23
2023-02-17T14:46:40.914Z,1.00
2023-02-17T14:49:10.496Z,1.20
2023-02-17T14:51:40.801Z,0.90
2023-02-17T14:54:20.066Z,1.13
2023-02-17T14:57:10.502Z,1.10
2023-02-17T14:59:44.299Z,1.00
2023-02-17T15:02:21.447Z,1.00
2023-02-17T15:05:07.126Z,1.00
2023-02-17T15:07:56.472Z,0.98
2023-02-17T15:10:47.184Z,1.00
2023-02-17T15:13:34.954Z,1.25
2023-02-17T15:16:20.901Z,1.10
2023-02-17T15:22:19.701Z,1.30
2023-02-17T15:24:53.971Z,1.17
2023-02-17T15:27:23.421Z,1.20
2023-02-17T15:29:55.413Z,1.20
2023-02-17T15:32:25.664Z,1.50
2023-02-17T15:34:57.924Z,1.30
2023-02-17T15:37:28.904Z,1.30
2023-02-17T15:40:09.213Z,1.30
2023-02-17T15:42:42.199Z,1.35
2023-02-17T15:45:20.088Z,1.30
2023-02-17T15:47:52.218Z,1.02
2023-02-17T15:50:23.873Z,1.20
2023-02-17T15:52:54.650Z,1.10
2023-02-17T15:55:27.507Z,1.45
2023-02-17T15:58:06.168Z,1.42
2023-02-17T16:00:40.147Z,1.23
2023-02-17T16:03:14.879Z,1.50
2023-02-17T16:05:48.889Z,1.50
2023-02-17T16:08:18.287Z,1.20
2023-02-17T16:10:48.796Z,1.38
2023-02-17T16:13:20.556Z,1.20
2023-02-17T16:15:50.186Z,1.10
2023-02-17T16:18:41.694Z,1.10
2023-02-17T16:21:15.145Z,1.25
2023-02-17T16:23:44.432Z,1.10
2023-02-17T16:26:16.308Z,1.20
2023-02-17T16:28:46.447Z,1.38
2023-02-17T16:31:15.594Z,1.20
2023-02-17T16:33:47.093Z,1.08
2023-02-17T16:36:21.979Z,1.20
2023-02-17T16:38:51.816Z,1.10
2023-02-17T16:41:25.822Z,1.15
2023-02-17T16:43:58.074Z,0.85
2023-02-17T16:46:33.525Z,1.02
2023-02-17T16:49:04.819Z,1.10
2023-02-17T16:51:43.343Z,1.02
2023-02-17T16:54:17.369Z,1.00
2023-02-17T16:56:51.785Z,1.00
2023-02-17T16:59:23.749Z,1.25
2023-02-17T17:01:59.069Z,1.60
2023-02-17T17:04:28.607Z,1.20
2023-02-17T17:06:57.540Z,1.55
2023-02-17T17:09:32.816Z,1.45
2023-02-17T17:12:05.055Z,1.10
2023-02-17T17:14:34.094Z,1.10
2023-02-17T17:17:03.670Z,1.00
2023-02-17T17:19:32.792Z,1.10
2023-02-17T17:22:02.030Z,1.10
2023-02-17T17:24:33.445Z,0.80
2023-02-17T17:27:05.026Z,1.00
2023-02-17T17:29:39.747Z,1.20
2023-02-17T17:32:15.227Z,1.10
2023-02-17T17:34:47.856Z,1.10
2023-02-17T17:37:17.170Z,1.10
2023-02-17T17:39:51.738Z,1.00
2023-02-17T17:42:20.898Z,1.23
2023-02-17T17:44:50.290Z,1.10
2023-02-17T17:47:29.306Z,1.02
2023-02-17T17:50:01.797Z,1.00
2023-02-17T17:52:30.948Z,1.13
2023-02-17T17:54:59.949Z,1.10
2023-02-17T17:57:29.143Z,1.10
2023-02-17T17:59:58.836Z,1.02
2023-02-17T18:02:28.312Z,1.05
2023-02-17T18:04:57.454Z,1.13
2023-02-17T18:07:27.795Z,1.13
2023-02-17T18:09:57.458Z,1.30
2023-02-17T18:12:27.048Z,1.10
2023-02-17T18:14:56.422Z,1.48
2023-02-17T18:17:25.661Z,1.30
2023-02-17T18:19:56.026Z,1.13
2023-02-17T18:22:28.364Z,1.05
2023-02-17T18:24:58.135Z,1.15
2023-02-17T18:27:30.323Z,1.00
2023-02-17T18:29:59.564Z,1.00
2023-02-17T18:32:29.550Z,1.00
2023-02-17T18:34:59.542Z,1.10
2023-02-17T18:37:41.065Z,1.10
2023-02-17T18:40:17.604Z,0.95
2023-02-17T18:42:54.132Z,1.15
2023-02-17T18:45:26.502Z,1.00
2023-02-17T18:48:01.259Z,1.05
2023-02-17T18:50:34.858Z,1.02
2023-02-17T18:53:06.242Z,0.95
2023-02-17T18:55:38.759Z,1.10
2023-02-17T18:58:07.885Z,0.90
2023-02-17T19:00:36.791Z,1.17
2023-02-17T19:03:08.768Z,1.05
2023-02-17T19:05:37.773Z,1.00
2023-02-17T19:08:07.777Z,1.10
2023-02-17T19:10:36.851Z,1.02
2023-02-17T19:13:05.785Z,1.02
2023-02-17T19:15:34.752Z,0.80
2023-02-17T19:18:04.008Z,0.90
2023-02-17T19:20:34.282Z,0.90
2023-02-17T19:23:06.218Z,1.63
2023-02-17T19:25:38.334Z,1.65
2023-02-17T19:28:07.439Z,1.80
2023-02-17T19:30:38.838Z,1.13
2023-02-17T19:33:10.042Z,1.40
2023-02-17T19:35:48.729Z,1.17
2023-02-17T19:38:18.418Z,1.00
2023-02-17T19:40:49.637Z,1.50
2023-02-17T19:43:20.797Z,0.75
2023-02-17T19:45:50.184Z,0.98
2023-02-17T19:48:24.911Z,1.20
2023-02-17T19:51:02.868Z,1.05
2023-02-17T19:53:33.954Z,1.00
2023-02-17T19:56:30.198Z,0.90
2023-02-17T19:59:00.378Z,0.70
2023-02-17T20:01:35.141Z,1.00
2023-02-17T20:04:06.379Z,1.65
2023-02-17T20:06:49.815Z,1.40
2023-02-17T20:09:23.382Z,1.35
2023-02-17T20:11:55.853Z,1.30
2023-02-17T20:14:28.392Z,1.25
2023-02-17T20:17:00.511Z,1.27
2023-02-17T20:19:33.135Z,1.33
2023-02-17T20:22:05.531Z,1.20
2023-02-17T20:24:37.901Z,0.93
2023-02-17T20:27:10.073Z,1.05
2023-02-17T20:29:39.165Z,0.95
2023-02-17T20:32:09.367Z,1.20
2023-02-17T20:34:40.893Z,1.27
2023-02-17T20:37:10.913Z,1.00
2023-02-17T20:39:43.144Z,1.40
2023-02-17T20:42:12.328Z,1.10
2023-02-17T20:44:43.243Z,1.50
2023-02-17T20:47:15.175Z,1.42
2023-02-17T20:49:46.998Z,1.33
2023-02-17T20:52:20.139Z,1.30
2023-02-17T20:54:51.130Z,1.58
2023-02-17T20:57:24.255Z,1.63
2023-02-17T20:59:57.936Z,1.60
2023-02-17T21:02:27.320Z,1.38
2023-02-17T21:04:56.280Z,1.42
2023-02-17T21:07:25.316Z,1.40
2023-02-17T21:09:59.659Z,1.10
2023-02-17T21:12:28.783Z,1.85
2023-02-17T21:14:58.071Z,2.30
2023-02-17T21:17:27.148Z,3.28
2023-02-17T21:19:56.976Z,2.53
2023-02-17T21:22:25.945Z,1.67
2023-02-17T21:24:54.882Z,2.60
2023-02-17T21:27:26.024Z,1.90
2023-02-17T21:29:55.153Z,1.30
2023-02-17T21:32:29.174Z,1.45
2023-02-17T21:35:01.273Z,1.48
2023-02-17T21:37:30.444Z,1.90
2023-02-17T21:39:59.900Z,1.45
2023-02-17T21:42:47.308Z,1.30
2023-02-17T21:45:17.540Z,1.30
2023-02-17T21:47:47.040Z,1.30
2023-02-17T21:50:19.539Z,1.60
2023-02-17T21:52:51.942Z,1.80
2023-02-17T21:55:24.711Z,1.40
2023-02-17T21:57:55.660Z,1.60
2023-02-17T22:00:26.838Z,1.40
2023-02-17T22:02:55.842Z,1.60
2023-02-17T22:05:24.814Z,1.45
2023-02-17T22:07:54.251Z,1.73
2023-02-17T22:10:23.331Z,1.60
2023-02-17T22:12:54.356Z,1.52
2023-02-17T22:15:23.426Z,1.38
2023-02-17T22:17:55.555Z,1.80
2023-02-17T22:20:24.560Z,1.80
2023-02-17T22:22:53.910Z,1.75
2023-02-17T22:25:24.458Z,1.70
2023-02-17T22:27:54.373Z,1.90
2023-02-17T22:30:25.347Z,2.05
2023-02-17T22:32:54.599Z,1.77
2023-02-17T22:35:24.461Z,1.40
2023-02-17T22:37:53.777Z,1.80
2023-02-17T22:40:22.814Z,1.48
2023-02-17T22:42:52.585Z,1.77
2023-02-17T22:45:21.541Z,1.88
2023-02-17T22:47:53.824Z,2.08
2023-02-17T22:50:23.227Z,1.92
2023-02-17T22:52:55.769Z,2.00
2023-02-17T22:55:25.795Z,1.85
2023-02-17T22:57:54.762Z,1.80
2023-02-17T23:00:23.892Z,3.15
2023-02-17T23:02:53.075Z,1.67
2023-02-17T23:05:22.123Z,1.88
2023-02-17T23:07:53.560Z,2.10
2023-02-17T23:10:25.170Z,2.00
2023-02-17T23:12:54.232Z,1.83
2023-02-17T23:15:39.950Z,1.95
2023-02-17T23:18:15.471Z,1.90
2023-02-17T23:20:50.888Z,1.90
2023-02-17T23:23:20.843Z,1.63
2023-02-17T23:25:52.454Z,1.80
2023-02-17T23:28:23.584Z,1.85
2023-02-17T23:30:54.183Z,1.90
2023-02-17T23:33:24.434Z,1.63
2023-02-17T23:35:53.503Z,1.70
2023-02-17T23:38:23.182Z,1.75
2023-02-17T23:40:53.938Z,2.25
2023-02-17T23:43:23.230Z,2.28
2023-02-17T23:45:56.454Z,2.00
2023-02-17T23:48:29.607Z,2.00
2023-02-17T23:51:03.743Z,1.77
2023-02-17T23:53:34.470Z,1.73
2023-02-17T23:56:09.984Z,1.83
2023-02-17T23:58:42.030Z,1.77
